Time;durP1;ratioP1;P1;durP2;ratioP2;P2;SDS_P1;SDS_P2;PMS_P1;PMS_P2;Temp;Humidity;BMP_temperature;BMP_pressure;BME280_temperature;BME280_humidity;BME280_pressure;Samples;Min_cycle;Max_cycle;Signal;HPM_P1;HPM_P2
2020/12/09 00:06:44;;;;;;;46.1;31.3;;;;;;;-1.63;92.10742;98391.41;;;;
2020/12/09 00:16:42;;;;;;;29.9;22;;;;;;;-1.58;92.31543;98408.19;;;;
2020/12/09 00:26:39;;;;;;;30.4;26.4;;;;;;;-1.5;92.12598;98406.21;;;;
2020/12/09 00:36:37;;;;;;;38.3;28.6;;;;;;;-1.29;91.75684;98414.31;;;;
2020/12/09 00:46:34;;;;;;;36.1;27.3;;;;;;;-1.28;91.31055;98418.54;;;;
2020/12/09 00:56:32;;;;;;;46.5;29.5;;;;;;;-1.21;91.03125;98421.04;;;;
2020/12/09 01:06:35;;;;;;;42;32;;;;;;;-1.27;90.89746;98414.87;;;;
2020/12/09 01:16:30;;;;;;;51;29.5;;;;;;;-1.3;90.88086;98407.41;;;;
2020/12/09 01:26:25;;;;;;;40.2;28.6;;;;;;;-1.22;90.58105;98409.69;;;;
2020/12/09 01:36:22;;;;;;;36.3;29.8;;;;;;;-1.22;90.50293;98414.17;;;;
2020/12/09 01:46:20;;;;;;;36.1;27;;;;;;;-1.13;89.74512;98407.45;;;;
2020/12/09 01:56:17;;;;;;;35.6;26.6;;;;;;;-1.13;89.76953;98410.91;;;;
2020/12/09 02:06:15;;;;;;;36.2;30.5;;;;;;;-1.15;89.5791;98402.42;;;;
2020/12/09 02:16:13;;;;;;;37.8;29.6;;;;;;;-1.24;89.14551;98403.81;;;;
2020/12/09 02:26:10;;;;;;;38.2;29.4;;;;;;;-1.48;89.50781;98409.41;;;;
2020/12/09 02:36:08;;;;;;;31;23.2;;;;;;;-1.5;89.12207;98404.38;;;;
2020/12/09 02:46:05;;;;;;;32.2;24.3;;;;;;;-1.56;89.33789;98400.01;;;;
2020/12/09 02:56:03;;;;;;;32.8;21.3;;;;;;;-1.52;89.29102;98409.08;;;;
2020/12/09 03:06:00;;;;;;;33.2;24.2;;;;;;;-1.66;89.0791;98395.33;;;;
2020/12/09 03:15:58;;;;;;;29.5;22.6;;;;;;;-1.7;89.24316;98403.97;;;;
2020/12/09 03:25:55;;;;;;;33.6;24.5;;;;;;;-1.89;89.89063;98395.38;;;;
2020/12/09 03:35:53;;;;;;;35.7;23.7;;;;;;;-1.86;89.86426;98415.23;;;;
2020/12/09 03:45:51;;;;;;;38.3;26.2;;;;;;;-2.1;89.86914;98412.63;;;;
2020/12/09 03:55:48;;;;;;;29.3;24.7;;;;;;;-1.99;89.36621;98410.2;;;;
2020/12/09 04:05:46;;;;;;;39.9;27.3;;;;;;;-2.01;89.41699;98414.92;;;;
2020/12/09 04:15:43;;;;;;;33.6;23;;;;;;;-2.16;89.69434;98416.19;;;;
2020/12/09 04:25:41;;;;;;;33.6;20.9;;;;;;;-2.22;89.38672;98409.17;;;;
2020/12/09 04:35:38;;;;;;;30.1;22.2;;;;;;;-2.19;89.1084;98415.84;;;;
2020/12/09 04:45:36;;;;;;;30.3;21.9;;;;;;;-2.26;89.14844;98426.52;;;;
2020/12/09 04:55:33;;;;;;;32.8;25.7;;;;;;;-2.3;89.10645;98406.08;;;;
2020/12/09 05:05:31;;;;;;;35.8;24.2;;;;;;;-2.34;88.76074;98415.48;;;;
2020/12/09 05:15:28;;;;;;;27.9;23.8;;;;;;;-2.39;88.8916;98410.88;;;;
2020/12/09 05:25:26;;;;;;;30.5;25.5;;;;;;;-2.46;88.8877;98425.24;;;;
2020/12/09 05:35:23;;;;;;;32;23.5;;;;;;;-2.46;89.05273;98423.38;;;;
2020/12/09 05:45:26;;;;;;;35;22.8;;;;;;;-2.49;88.84863;98421.2;;;;
2020/12/09 05:55:18;;;;;;;37.2;23.3;;;;;;;-2.48;89.08203;98428.09;;;;
2020/12/09 06:05:16;;;;;;;28.4;20.7;;;;;;;-2.53;89.60449;98414.77;;;;
2020/12/09 06:15:13;;;;;;;28.5;21.8;;;;;;;-2.52;89.80273;98415.58;;;;
2020/12/09 06:25:10;;;;;;;28.6;22.6;;;;;;;-2.54;90.16699;98434.29;;;;
2020/12/09 06:35:09;;;;;;;36.1;24.2;;;;;;;-2.46;90.20801;98441.85;;;;
2020/12/09 06:45:05;;;;;;;31.3;21.2;;;;;;;-2.41;90.26172;98463.09;;;;
2020/12/09 06:55:02;;;;;;;31.6;21.9;;;;;;;-2.32;90.09668;98474.91;;;;
2020/12/09 07:05:00;;;;;;;32;27;;;;;;;-2.34;90.06934;98470.91;;;;
2020/12/09 07:14:57;;;;;;;26.1;18.6;;;;;;;-2.26;90.0752;98463.47;;;;
2020/12/09 07:24:55;;;;;;;34.3;25.2;;;;;;;-2.11;89.62988;98458.53;;;;
2020/12/09 07:34:52;;;;;;;35.9;20.6;;;;;;;-2.09;89.63281;98459.13;;;;
2020/12/09 07:44:50;;;;;;;36.2;25.3;;;;;;;-2.1;89.66211;98473.34;;;;
2020/12/09 07:54:47;;;;;;;41.9;28.6;;;;;;;-2.02;89.65527;98471.4;;;;
2020/12/09 08:04:45;;;;;;;35.6;23.9;;;;;;;-1.94;89.25781;98478.98;;;;
2020/12/09 08:14:42;;;;;;;33.7;25.6;;;;;;;-1.9;89.12695;98486.2;;;;
2020/12/09 08:24:39;;;;;;;33.2;21.9;;;;;;;-1.74;88.63477;98487.36;;;;
2020/12/09 08:34:39;;;;;;;37.2;27;;;;;;;-1.75;88.64355;98483.1;;;;
2020/12/09 08:44:34;;;;;;;29.4;20;;;;;;;-1.56;87.93945;98495.13;;;;
2020/12/09 08:54:35;;;;;;;32.5;24.7;;;;;;;-1.66;87.84473;98503.65;;;;
2020/12/09 09:04:33;;;;;;;27.8;21.7;;;;;;;-1.53;87.73926;98506.05;;;;
2020/12/09 09:14:27;;;;;;;30.8;22.4;;;;;;;-1.51;87.30566;98508.47;;;;
2020/12/09 09:24:25;;;;;;;32.6;25.2;;;;;;;-1.37;87.125;98501.09;;;;
2020/12/09 09:34:23;;;;;;;37.7;22.6;;;;;;;-1.46;86.95605;98511.23;;;;
2020/12/09 09:44:20;;;;;;;38.6;25.3;;;;;;;-1.52;87.06348;98507.66;;;;
2020/12/09 09:54:17;;;;;;;35.9;23.6;;;;;;;-1.4;86.89063;98514.77;;;;
2020/12/09 10:04:15;;;;;;;35.3;25.3;;;;;;;-1.19;85.66406;98514.97;;;;
2020/12/09 10:14:12;;;;;;;40.1;26.1;;;;;;;-1.23;85.85254;98505.89;;;;
2020/12/09 10:24:10;;;;;;;35.3;24.3;;;;;;;-1.18;85.18262;98491.98;;;;
2020/12/09 10:34:08;;;;;;;40.1;26.4;;;;;;;-1.26;85.89063;98476.48;;;;
2020/12/09 10:44:05;;;;;;;32.4;25.2;;;;;;;-1.24;85.50195;98493.7;;;;
2020/12/09 10:54:05;;;;;;;41.8;24.4;;;;;;;-1.18;85.04199;98479.54;;;;
2020/12/09 11:04:01;;;;;;;31.9;25;;;;;;;-1.37;85.79102;98461.44;;;;
2020/12/09 11:13:58;;;;;;;39.8;25.7;;;;;;;-1.45;86.26855;98457.31;;;;
2020/12/09 11:23:56;;;;;;;41.4;28.6;;;;;;;-1.33;86.56543;98434.31;;;;
2020/12/09 11:33:56;;;;;;;40.1;26.5;;;;;;;-1.15;86.0127;98439.44;;;;
2020/12/09 11:43:51;;;;;;;42.4;28.6;;;;;;;-1.27;85.91113;98449.23;;;;
2020/12/09 11:53:49;;;;;;;43.6;26.8;;;;;;;-1.2;85.59668;98439.33;;;;
2020/12/09 12:03:47;;;;;;;40.1;24.7;;;;;;;-1.2;85.89258;98431.39;;;;
2020/12/09 12:13:44;;;;;;;43.2;31.1;;;;;;;-1.24;85.04199;98430.25;;;;
2020/12/09 12:23:41;;;;;;;40.3;26.6;;;;;;;-1.35;85.1377;98430.28;;;;
2020/12/09 12:33:39;;;;;;;53.2;31.6;;;;;;;-1.6;85.99707;98434.02;;;;
2020/12/09 12:43:37;;;;;;;37.3;28;;;;;;;-1.62;85.54492;98433.46;;;;
2020/12/09 12:53:37;;;;;;;40.7;29.3;;;;;;;-1.71;85.91016;98436.7;;;;
2020/12/09 13:03:32;;;;;;;35.7;26.9;;;;;;;-1.71;86.15039;98442.8;;;;
2020/12/09 13:13:29;;;;;;;39.8;28;;;;;;;-1.76;86.52246;98428.66;;;;
2020/12/09 13:23:27;;;;;;;38.7;26.5;;;;;;;-1.67;86.10254;98435.2;;;;
2020/12/09 13:33:25;;;;;;;39.4;32.2;;;;;;;-1.77;86.58594;98430.48;;;;
2020/12/09 13:43:23;;;;;;;52.8;36.2;;;;;;;-1.73;86.15625;98426.35;;;;
2020/12/09 13:53:20;;;;;;;43.6;26.1;;;;;;;-1.83;86.23438;98435.89;;;;
2020/12/09 14:03:17;;;;;;;39.7;28.2;;;;;;;-1.88;86.50781;98449.01;;;;
2020/12/09 14:13:15;;;;;;;32.9;22.5;;;;;;;-1.99;86.72461;98452.45;;;;
2020/12/09 14:23:12;;;;;;;43.4;28.6;;;;;;;-2.1;86.46387;98456.7;;;;
2020/12/09 14:33:10;;;;;;;33.1;25.6;;;;;;;-2.08;86.62012;98451.98;;;;
2020/12/09 14:43:07;;;;;;;47.2;29.3;;;;;;;-2.17;86.84473;98440.97;;;;
2020/12/09 14:53:06;;;;;;;31.7;25.5;;;;;;;-2.19;86.69922;98443.05;;;;
2020/12/09 15:03:04;;;;;;;37.5;25.2;;;;;;;-2.21;86.83496;98449.56;;;;
2020/12/09 15:13:00;;;;;;;53.1;31.7;;;;;;;-2.26;87.19531;98447.64;;;;
2020/12/09 15:22:57;;;;;;;52.1;33.3;;;;;;;-2.27;86.84473;98426.73;;;;
2020/12/09 15:32:55;;;;;;;39;27.2;;;;;;;-2.29;86.98242;98434.87;;;;
2020/12/09 15:42:52;;;;;;;39.6;27.8;;;;;;;-2.4;87.17676;98434.88;;;;
2020/12/09 15:52:50;;;;;;;41;29.1;;;;;;;-2.42;87.16211;98435.09;;;;
2020/12/09 16:02:47;;;;;;;32.3;24.1;;;;;;;-2.42;87.0752;98434.28;;;;
2020/12/09 16:12:47;;;;;;;38.2;26.8;;;;;;;-2.39;86.8623;98441.74;;;;
2020/12/09 16:22:42;;;;;;;45.5;31.7;;;;;;;-2.41;86.99023;98452.54;;;;
2020/12/09 16:32:40;;;;;;;46.6;30.7;;;;;;;-2.48;87.3916;98443.92;;;;
2020/12/09 16:42:37;;;;;;;45;34.2;;;;;;;-2.44;86.89648;98442.45;;;;
2020/12/09 16:52:35;;;;;;;46.7;30.2;;;;;;;-2.56;87.50391;98462.71;;;;
2020/12/09 17:02:32;;;;;;;38.6;28.3;;;;;;;-2.5;87.4082;98453.11;;;;
2020/12/09 17:12:30;;;;;;;36;26.6;;;;;;;-2.5;87.24414;98450.47;;;;
2020/12/09 17:22:28;;;;;;;46.5;28.2;;;;;;;-2.6;87.6709;98448.36;;;;
2020/12/09 17:32:25;;;;;;;49.9;29.2;;;;;;;-2.52;87.1748;98432.21;;;;
2020/12/09 17:42:24;;;;;;;46.4;30.5;;;;;;;-2.57;87.37109;98429.47;;;;
2020/12/09 17:52:20;;;;;;;132.7;82.9;;;;;;;-2.6;87.44238;98427.26;;;;
2020/12/09 18:02:20;;;;;;;35.9;28.2;;;;;;;-2.71;87.9209;98422.79;;;;
2020/12/09 18:12:17;;;;;;;51.4;30.1;;;;;;;-2.63;87.43652;98411.89;;;;
2020/12/09 18:22:12;;;;;;;48.7;32.2;;;;;;;-2.72;87.53809;98421.98;;;;
2020/12/09 18:32:10;;;;;;;57.6;34.3;;;;;;;-2.7;87.74902;98430.45;;;;
2020/12/09 18:42:07;;;;;;;47.1;32.1;;;;;;;-2.65;87.54004;98432.42;;;;
2020/12/09 18:52:06;;;;;;;38.9;28.9;;;;;;;-2.55;87.3877;98430.03;;;;
2020/12/09 19:02:02;;;;;;;47;33.9;;;;;;;-2.56;87.23145;98428.42;;;;
2020/12/09 19:11:59;;;;;;;52.8;33.9;;;;;;;-2.53;87.57715;98425.32;;;;
2020/12/09 19:21:57;;;;;;;41.4;29.7;;;;;;;-2.47;87.46777;98419.16;;;;
2020/12/09 19:31:54;;;;;;;43.6;33;;;;;;;-2.5;87.30078;98424.89;;;;
2020/12/09 19:41:52;;;;;;;40.4;33.8;;;;;;;-2.48;87.27148;98428.09;;;;
2020/12/09 19:51:50;;;;;;;41.8;30.2;;;;;;;-2.51;87.50195;98425.11;;;;
2020/12/09 20:01:47;;;;;;;50.2;34.2;;;;;;;-2.58;87.71973;98439.22;;;;
2020/12/09 20:11:45;;;;;;;44.9;30.9;;;;;;;-2.41;87.10938;98452.54;;;;
2020/12/09 20:21:42;;;;;;;41.8;27.2;;;;;;;-2.41;87.37012;98457.01;;;;
2020/12/09 20:31:39;;;;;;;52.7;35.3;;;;;;;-2.43;87.09375;98437.98;;;;
2020/12/09 20:41:37;;;;;;;44.5;30.5;;;;;;;-2.48;87.14063;98425.45;;;;
2020/12/09 20:51:34;;;;;;;49.5;33.8;;;;;;;-2.6;87.57324;98424.63;;;;
2020/12/09 21:01:32;;;;;;;46.3;33.3;;;;;;;-2.62;87.45801;98424.05;;;;
2020/12/09 21:11:29;;;;;;;51.9;34.2;;;;;;;-2.69;87.75098;98415.44;;;;
2020/12/09 21:21:27;;;;;;;41.4;30.8;;;;;;;-2.63;87.8291;98414.52;;;;
2020/12/09 21:31:26;;;;;;;41.7;29.1;;;;;;;-2.62;87.61328;98416.95;;;;
2020/12/09 21:41:25;;;;;;;43.9;32;;;;;;;-2.61;87.78027;98421.2;;;;
2020/12/09 21:51:19;;;;;;;42.8;32;;;;;;;-2.67;87.87598;98406.27;;;;
2020/12/09 22:01:17;;;;;;;45.3;29.2;;;;;;;-2.58;87.79688;98399.64;;;;
2020/12/09 22:11:15;;;;;;;44.5;30.5;;;;;;;-2.56;87.72363;98392.3;;;;
2020/12/09 22:21:11;;;;;;;62.4;33.6;;;;;;;-2.58;87.46777;98385.64;;;;
2020/12/09 22:31:09;;;;;;;40.7;27.4;;;;;;;-2.66;87.83301;98362.23;;;;
2020/12/09 22:41:06;;;;;;;39;30.3;;;;;;;-2.72;87.72168;98334.14;;;;
2020/12/09 22:51:04;;;;;;;37.4;26.5;;;;;;;-2.78;88.16797;98330.59;;;;
2020/12/09 23:01:01;;;;;;;39.3;27.5;;;;;;;-2.87;88.23535;98323.22;;;;
2020/12/09 23:10:58;;;;;;;42;28.3;;;;;;;-2.81;88.29199;98312.56;;;;
2020/12/09 23:20:56;;;;;;;41.9;27.8;;;;;;;-2.87;88.26953;98310.84;;;;
2020/12/09 23:30:54;;;;;;;43.6;25.9;;;;;;;-2.81;88.2373;98294.11;;;;
2020/12/09 23:40:53;;;;;;;44.5;25.9;;;;;;;-2.93;88.22168;98295.14;;;;
2020/12/09 23:50:48;;;;;;;36.7;24.7;;;;;;;-2.89;88.26367;98281.28;;;;
